SWA1101 KSLC-KLAS
Flight info
| Callsign | SWA1101 |
|---|---|
| Flight time | 1h 2m |
| Altitude | 36000 |
| Route | ARCHZ1 MLF DCT STEWW CHOWW4 |
| Aircraft | B38M/M-SDE1FGHILORVWXY/HB1 |
Departure
| Time | 2026-05-04 03:17 |
|---|---|
| Airport | Salt Lake City International Airport (KSLC) |
Arrival
| Time | 2026-05-04 04:19 |
|---|---|
| Airport | Harry Reid International Airport (KLAS) |
| Time | Latitude | Longitude | Altitude | Speed | Heading |
|---|---|---|---|---|---|
| 2026-05-04 02:40 | 40.78863 | -111.98255 | 4233 ft | 0 kts | 355° |
| 2026-05-04 03:03 | 40.78859 | -111.98255 | 4233 ft | 3 kts | 355° |
| 2026-05-04 03:04 | 40.78833 | -111.98253 | 4233 ft | 4 kts | 4° |
| 2026-05-04 03:04 | 40.78807 | -111.98261 | 4233 ft | 4 kts | 28° |
| 2026-05-04 03:04 | 40.78792 | -111.98283 | 4233 ft | 3 kts | 80° |
| 2026-05-04 03:04 | 40.78791 | -111.98288 | 4233 ft | 1 kts | 84° |
| 2026-05-04 03:06 | 40.78791 | -111.98287 | 4233 ft | 0 kts | 84° |
| 2026-05-04 03:07 | 40.78794 | -111.98250 | 4233 ft | 11 kts | 85° |
| 2026-05-04 03:07 | 40.78806 | -111.98095 | 4233 ft | 25 kts | 84° |
| 2026-05-04 03:07 | 40.78831 | -111.97825 | 4233 ft | 22 kts | 83° |
| 2026-05-04 03:07 | 40.78782 | -111.97684 | 4233 ft | 20 kts | 173° |
| 2026-05-04 03:08 | 40.78677 | -111.97671 | 4234 ft | 13 kts | 175° |
| 2026-05-04 03:08 | 40.78571 | -111.97661 | 4234 ft | 19 kts | 175° |
| 2026-05-04 03:08 | 40.78415 | -111.97641 | 4233 ft | 26 kts | 175° |
| 2026-05-04 03:08 | 40.78286 | -111.97624 | 4233 ft | 15 kts | 173° |
| 2026-05-04 03:09 | 40.78190 | -111.97613 | 4233 ft | 12 kts | 176° |
| 2026-05-04 03:09 | 40.78097 | -111.97604 | 4233 ft | 15 kts | 175° |
| 2026-05-04 03:09 | 40.78048 | -111.97599 | 4233 ft | 7 kts | 175° |
| 2026-05-04 03:09 | 40.77990 | -111.97592 | 4233 ft | 10 kts | 175° |
| 2026-05-04 03:10 | 40.77911 | -111.97559 | 4233 ft | 15 kts | 156° |
| 2026-05-04 03:10 | 40.77813 | -111.97522 | 4233 ft | 15 kts | 173° |
| 2026-05-04 03:10 | 40.77706 | -111.97510 | 4234 ft | 18 kts | 175° |
| 2026-05-04 03:10 | 40.77605 | -111.97499 | 4234 ft | 9 kts | 174° |
| 2026-05-04 03:11 | 40.77547 | -111.97492 | 4234 ft | 5 kts | 176° |
| 2026-05-04 03:11 | 40.77533 | -111.97491 | 4233 ft | 0 kts | 175° |
| 2026-05-04 03:11 | 40.77511 | -111.97488 | 4233 ft | 5 kts | 175° |
| 2026-05-04 03:11 | 40.77480 | -111.97482 | 4233 ft | 1 kts | 165° |
| 2026-05-04 03:12 | 40.77474 | -111.97480 | 4233 ft | 0 kts | 160° |
| 2026-05-04 03:12 | 40.77461 | -111.97470 | 4233 ft | 6 kts | 143° |
| 2026-05-04 03:12 | 40.77458 | -111.97395 | 4233 ft | 12 kts | 55° |
| 2026-05-04 03:13 | 40.77501 | -111.97340 | 4233 ft | 5 kts | 42° |
| 2026-05-04 03:13 | 40.77543 | -111.97324 | 4233 ft | 0 kts | 355° |
| 2026-05-04 03:16 | 40.77581 | -111.97329 | 4233 ft | 26 kts | 354° |
| 2026-05-04 03:16 | 40.78059 | -111.97386 | 4233 ft | 109 kts | 355° |
| 2026-05-04 03:16 | 40.79051 | -111.97501 | 4246 ft | 173 kts | 355° |
| 2026-05-04 03:17 | 40.80320 | -111.97619 | 4916 ft | 190 kts | 355° |
| 2026-05-04 03:17 | 40.81691 | -111.97932 | 5673 ft | 210 kts | 336° |
| 2026-05-04 03:17 | 40.82685 | -111.99143 | 6933 ft | 196 kts | 302° |
| 2026-05-04 03:17 | 40.83159 | -112.00872 | 7697 ft | 210 kts | 277° |
| 2026-05-04 03:18 | 40.83248 | -112.02909 | 8102 ft | 233 kts | 271° |
| 2026-05-04 03:18 | 40.83274 | -112.05137 | 8180 ft | 252 kts | 271° |
| 2026-05-04 03:18 | 40.83298 | -112.07531 | 8257 ft | 268 kts | 271° |
| 2026-05-04 03:18 | 40.83326 | -112.10027 | 8354 ft | 275 kts | 271° |
| 2026-05-04 03:19 | 40.83059 | -112.12556 | 8969 ft | 283 kts | 248° |
| 2026-05-04 03:19 | 40.82021 | -112.14793 | 9901 ft | 291 kts | 232° |
| 2026-05-04 03:19 | 40.80810 | -112.17010 | 10699 ft | 305 kts | 235° |
| 2026-05-04 03:19 | 40.79564 | -112.19366 | 11441 ft | 319 kts | 236° |
| 2026-05-04 03:20 | 40.78278 | -112.21813 | 12214 ft | 329 kts | 236° |
| 2026-05-04 03:20 | 40.76960 | -112.24318 | 13098 ft | 334 kts | 234° |
| 2026-05-04 03:20 | 40.75317 | -112.26483 | 13988 ft | 338 kts | 213° |
| 2026-05-04 03:20 | 40.73148 | -112.27713 | 14843 ft | 343 kts | 193° |
| 2026-05-04 03:21 | 40.70781 | -112.28232 | 15695 ft | 347 kts | 190° |
| 2026-05-04 03:21 | 40.68402 | -112.28737 | 16525 ft | 349 kts | 190° |
| 2026-05-04 03:21 | 40.65979 | -112.29239 | 17369 ft | 351 kts | 190° |
| 2026-05-04 03:21 | 40.63586 | -112.29730 | 18168 ft | 352 kts | 189° |
| 2026-05-04 03:22 | 40.61155 | -112.30223 | 18936 ft | 355 kts | 189° |
| 2026-05-04 03:22 | 40.58692 | -112.30725 | 19581 ft | 359 kts | 189° |
| 2026-05-04 03:22 | 40.56215 | -112.31286 | 20235 ft | 362 kts | 196° |
| 2026-05-04 03:22 | 40.53817 | -112.32342 | 20895 ft | 365 kts | 199° |
| 2026-05-04 03:23 | 40.51381 | -112.33383 | 21493 ft | 369 kts | 198° |
| 2026-05-04 03:23 | 40.48955 | -112.34394 | 22098 ft | 372 kts | 198° |
| 2026-05-04 03:23 | 40.46473 | -112.35410 | 22709 ft | 375 kts | 198° |
| 2026-05-04 03:23 | 40.43963 | -112.36428 | 23296 ft | 378 kts | 198° |
| 2026-05-04 03:24 | 40.41436 | -112.37447 | 23861 ft | 381 kts | 199° |
| 2026-05-04 03:24 | 40.38884 | -112.38474 | 24411 ft | 384 kts | 199° |
| 2026-05-04 03:24 | 40.36352 | -112.39491 | 24955 ft | 386 kts | 199° |
| 2026-05-04 03:24 | 40.33777 | -112.40525 | 25508 ft | 387 kts | 199° |
| 2026-05-04 03:25 | 40.31192 | -112.41563 | 26027 ft | 389 kts | 199° |
| 2026-05-04 03:25 | 40.28594 | -112.42604 | 26552 ft | 391 kts | 199° |
| 2026-05-04 03:25 | 40.25983 | -112.43650 | 27059 ft | 392 kts | 200° |
| 2026-05-04 03:25 | 40.23366 | -112.44698 | 27518 ft | 394 kts | 200° |
| 2026-05-04 03:26 | 40.20741 | -112.45747 | 27996 ft | 395 kts | 200° |
| 2026-05-04 03:26 | 40.18129 | -112.46872 | 28450 ft | 395 kts | 207° |
| 2026-05-04 03:26 | 40.15707 | -112.48561 | 28898 ft | 394 kts | 211° |
| 2026-05-04 03:26 | 40.13313 | -112.50245 | 29314 ft | 396 kts | 211° |
| 2026-05-04 03:27 | 40.10879 | -112.51956 | 29735 ft | 397 kts | 211° |
| 2026-05-04 03:27 | 40.08525 | -112.53612 | 30126 ft | 398 kts | 211° |
| 2026-05-04 03:27 | 40.06109 | -112.55309 | 30490 ft | 400 kts | 211° |
| 2026-05-04 03:27 | 40.03639 | -112.57045 | 30762 ft | 405 kts | 211° |
| 2026-05-04 03:28 | 40.01143 | -112.58797 | 31092 ft | 408 kts | 211° |
| 2026-05-04 03:28 | 39.98632 | -112.60558 | 31400 ft | 411 kts | 210° |
| 2026-05-04 03:28 | 39.96106 | -112.62330 | 31738 ft | 413 kts | 211° |
| 2026-05-04 03:28 | 39.93592 | -112.64089 | 31910 ft | 417 kts | 211° |
| 2026-05-04 03:29 | 39.91026 | -112.65884 | 31915 ft | 417 kts | 210° |
| 2026-05-04 03:29 | 39.85927 | -112.69447 | 31908 ft | 415 kts | 211° |
| 2026-05-04 03:30 | 39.80831 | -112.73002 | 31906 ft | 415 kts | 211° |
| 2026-05-04 03:30 | 39.75758 | -112.76534 | 31904 ft | 416 kts | 210° |
| 2026-05-04 03:31 | 39.70659 | -112.80080 | 31909 ft | 416 kts | 211° |
| 2026-05-04 03:31 | 39.68029 | -112.81608 | 31894 ft | 419 kts | 198° |
| 2026-05-04 03:31 | 39.65122 | -112.82225 | 31925 ft | 422 kts | 190° |
| 2026-05-04 03:32 | 39.59271 | -112.83194 | 31922 ft | 423 kts | 191° |
| 2026-05-04 03:32 | 39.53454 | -112.84088 | 31916 ft | 423 kts | 190° |
| 2026-05-04 03:33 | 39.47601 | -112.84964 | 31917 ft | 423 kts | 191° |
| 2026-05-04 03:33 | 39.41755 | -112.85834 | 31917 ft | 422 kts | 191° |
| 2026-05-04 03:34 | 39.35912 | -112.86703 | 31917 ft | 422 kts | 191° |
| 2026-05-04 03:34 | 39.30197 | -112.87551 | 31918 ft | 422 kts | 191° |
| 2026-05-04 03:35 | 39.24353 | -112.88416 | 31916 ft | 422 kts | 191° |
| 2026-05-04 03:35 | 39.18534 | -112.89277 | 31917 ft | 422 kts | 191° |
| 2026-05-04 03:36 | 39.12695 | -112.90139 | 31915 ft | 421 kts | 191° |
| 2026-05-04 03:36 | 39.06896 | -112.90994 | 31917 ft | 421 kts | 191° |
| 2026-05-04 03:37 | 39.01065 | -112.91851 | 31921 ft | 420 kts | 191° |
| 2026-05-04 03:37 | 38.95301 | -112.92698 | 31919 ft | 421 kts | 191° |
| 2026-05-04 03:38 | 38.89519 | -112.93546 | 31931 ft | 420 kts | 192° |
| 2026-05-04 03:38 | 38.83739 | -112.94390 | 31960 ft | 406 kts | 192° |
| 2026-05-04 03:39 | 38.78173 | -112.95205 | 31953 ft | 404 kts | 192° |
| 2026-05-04 03:39 | 38.72542 | -112.96027 | 31956 ft | 411 kts | 192° |
| 2026-05-04 03:40 | 38.66866 | -112.96854 | 31952 ft | 409 kts | 192° |
| 2026-05-04 03:40 | 38.61203 | -112.97678 | 31953 ft | 409 kts | 192° |
| 2026-05-04 03:41 | 38.55541 | -112.98500 | 31952 ft | 409 kts | 192° |
| 2026-05-04 03:41 | 38.49925 | -112.99315 | 31946 ft | 408 kts | 192° |
| 2026-05-04 03:42 | 38.44260 | -113.00135 | 31947 ft | 408 kts | 193° |
| 2026-05-04 03:42 | 38.38603 | -113.00953 | 31946 ft | 408 kts | 193° |
| 2026-05-04 03:43 | 38.33256 | -113.02711 | 31955 ft | 397 kts | 206° |
| 2026-05-04 03:43 | 38.28045 | -113.05136 | 31957 ft | 398 kts | 206° |
| 2026-05-04 03:44 | 38.22881 | -113.07576 | 31954 ft | 397 kts | 206° |
| 2026-05-04 03:44 | 38.17691 | -113.10036 | 31970 ft | 397 kts | 206° |
| 2026-05-04 03:45 | 38.12548 | -113.12470 | 31959 ft | 396 kts | 206° |
| 2026-05-04 03:45 | 38.07367 | -113.14919 | 31966 ft | 395 kts | 206° |
| 2026-05-04 03:46 | 38.02234 | -113.17341 | 31971 ft | 396 kts | 206° |
| 2026-05-04 03:46 | 37.97058 | -113.19779 | 31977 ft | 395 kts | 207° |
| 2026-05-04 03:47 | 37.91945 | -113.22184 | 31980 ft | 392 kts | 207° |
| 2026-05-04 03:47 | 37.86951 | -113.24530 | 31996 ft | 392 kts | 207° |
| 2026-05-04 03:48 | 37.81829 | -113.26933 | 31999 ft | 392 kts | 207° |
| 2026-05-04 03:48 | 37.76739 | -113.29317 | 32003 ft | 393 kts | 207° |
| 2026-05-04 03:49 | 37.71619 | -113.31711 | 31998 ft | 391 kts | 207° |
| 2026-05-04 03:49 | 37.66549 | -113.34079 | 31999 ft | 391 kts | 207° |
| 2026-05-04 03:50 | 37.61433 | -113.36466 | 32001 ft | 391 kts | 207° |
| 2026-05-04 03:50 | 37.56393 | -113.38812 | 31992 ft | 392 kts | 207° |
| 2026-05-04 03:51 | 37.51294 | -113.41182 | 31972 ft | 392 kts | 207° |
| 2026-05-04 03:51 | 37.46163 | -113.43564 | 31972 ft | 392 kts | 207° |
| 2026-05-04 03:52 | 37.41032 | -113.45943 | 31960 ft | 393 kts | 207° |
| 2026-05-04 03:52 | 37.35880 | -113.48328 | 31920 ft | 394 kts | 207° |
| 2026-05-04 03:53 | 37.30768 | -113.50692 | 31930 ft | 394 kts | 208° |
| 2026-05-04 03:53 | 37.25600 | -113.53078 | 31900 ft | 394 kts | 208° |
| 2026-05-04 03:54 | 37.20939 | -113.55771 | 31890 ft | 389 kts | 212° |
| 2026-05-04 03:54 | 37.16022 | -113.58657 | 31864 ft | 390 kts | 212° |
| 2026-05-04 03:55 | 37.11213 | -113.61447 | 31751 ft | 371 kts | 212° |
| 2026-05-04 03:55 | 37.08891 | -113.62793 | 31463 ft | 363 kts | 212° |
| 2026-05-04 03:55 | 37.06627 | -113.64102 | 31408 ft | 357 kts | 212° |
| 2026-05-04 03:55 | 37.04368 | -113.65409 | 31142 ft | 357 kts | 212° |
| 2026-05-04 03:56 | 37.02111 | -113.66714 | 30680 ft | 355 kts | 212° |
| 2026-05-04 03:56 | 36.99895 | -113.67994 | 30164 ft | 353 kts | 212° |
| 2026-05-04 03:56 | 36.97669 | -113.69280 | 29702 ft | 351 kts | 212° |
| 2026-05-04 03:56 | 36.95455 | -113.70559 | 29252 ft | 348 kts | 212° |
| 2026-05-04 03:57 | 36.93263 | -113.71842 | 28748 ft | 347 kts | 211° |
| 2026-05-04 03:57 | 36.91110 | -113.73099 | 28365 ft | 343 kts | 211° |
| 2026-05-04 03:57 | 36.88954 | -113.74359 | 27964 ft | 342 kts | 211° |
| 2026-05-04 03:57 | 36.86801 | -113.75615 | 27573 ft | 341 kts | 211° |
| 2026-05-04 03:58 | 36.82513 | -113.78114 | 26779 ft | 337 kts | 211° |
| 2026-05-04 03:58 | 36.80391 | -113.79349 | 26383 ft | 336 kts | 210° |
| 2026-05-04 03:58 | 36.78280 | -113.80577 | 26007 ft | 334 kts | 210° |
| 2026-05-04 03:59 | 36.76179 | -113.81799 | 25634 ft | 332 kts | 210° |
| 2026-05-04 03:59 | 36.74794 | -113.82604 | 25390 ft | 331 kts | 210° |
| 2026-05-04 03:59 | 36.72702 | -113.83820 | 25024 ft | 329 kts | 210° |
| 2026-05-04 03:59 | 36.70627 | -113.85024 | 24675 ft | 328 kts | 210° |
| 2026-05-04 04:00 | 36.68561 | -113.86223 | 24299 ft | 325 kts | 210° |
| 2026-05-04 04:00 | 36.66537 | -113.87396 | 23954 ft | 323 kts | 210° |
| 2026-05-04 04:00 | 36.64595 | -113.88522 | 23636 ft | 322 kts | 210° |
| 2026-05-04 04:00 | 36.62569 | -113.89695 | 23295 ft | 320 kts | 210° |
| 2026-05-04 04:01 | 36.60556 | -113.90861 | 22940 ft | 318 kts | 210° |
| 2026-05-04 04:01 | 36.58748 | -113.92377 | 22451 ft | 312 kts | 228° |
| 2026-05-04 04:01 | 36.57377 | -113.94450 | 22061 ft | 308 kts | 232° |
| 2026-05-04 04:01 | 36.56049 | -113.96507 | 21672 ft | 307 kts | 232° |
| 2026-05-04 04:02 | 36.54728 | -113.98587 | 21257 ft | 306 kts | 232° |
| 2026-05-04 04:02 | 36.53413 | -114.00676 | 20837 ft | 305 kts | 232° |
| 2026-05-04 04:02 | 36.52108 | -114.02763 | 20424 ft | 304 kts | 232° |
| 2026-05-04 04:02 | 36.50830 | -114.04816 | 20011 ft | 303 kts | 232° |
| 2026-05-04 04:03 | 36.49524 | -114.06913 | 19608 ft | 303 kts | 232° |
| 2026-05-04 04:03 | 36.48249 | -114.08963 | 19190 ft | 303 kts | 231° |
| 2026-05-04 04:03 | 36.46955 | -114.11045 | 18767 ft | 304 kts | 231° |
| 2026-05-04 04:03 | 36.45662 | -114.13122 | 18352 ft | 304 kts | 231° |
| 2026-05-04 04:04 | 36.44367 | -114.15203 | 17935 ft | 304 kts | 231° |
| 2026-05-04 04:04 | 36.43070 | -114.17284 | 17522 ft | 304 kts | 230° |
| 2026-05-04 04:04 | 36.41792 | -114.19334 | 17113 ft | 303 kts | 231° |
| 2026-05-04 04:04 | 36.40502 | -114.21402 | 16794 ft | 300 kts | 230° |
| 2026-05-04 04:05 | 36.39223 | -114.23435 | 16419 ft | 298 kts | 230° |
| 2026-05-04 04:05 | 36.37937 | -114.25453 | 16046 ft | 297 kts | 230° |
| 2026-05-04 04:05 | 36.36659 | -114.27459 | 15679 ft | 296 kts | 230° |
| 2026-05-04 04:05 | 36.35384 | -114.29461 | 15285 ft | 295 kts | 230° |
| 2026-05-04 04:06 | 36.34111 | -114.31460 | 14890 ft | 295 kts | 230° |
| 2026-05-04 04:06 | 36.32840 | -114.33453 | 14491 ft | 294 kts | 230° |
| 2026-05-04 04:06 | 36.31586 | -114.35420 | 14083 ft | 294 kts | 230° |
| 2026-05-04 04:06 | 36.30315 | -114.37411 | 13695 ft | 294 kts | 229° |
| 2026-05-04 04:07 | 36.29046 | -114.39399 | 13285 ft | 294 kts | 229° |
| 2026-05-04 04:07 | 36.27773 | -114.41390 | 12897 ft | 294 kts | 229° |
| 2026-05-04 04:07 | 36.26500 | -114.43381 | 12484 ft | 295 kts | 229° |
| 2026-05-04 04:07 | 36.25221 | -114.45369 | 12062 ft | 295 kts | 229° |
| 2026-05-04 04:08 | 36.23928 | -114.47353 | 11619 ft | 296 kts | 229° |
| 2026-05-04 04:08 | 36.22635 | -114.49338 | 11228 ft | 295 kts | 229° |
| 2026-05-04 04:08 | 36.21364 | -114.51289 | 10836 ft | 295 kts | 229° |
| 2026-05-04 04:08 | 36.20073 | -114.53270 | 10443 ft | 294 kts | 229° |
| 2026-05-04 04:09 | 36.18783 | -114.55246 | 9996 ft | 296 kts | 229° |
| 2026-05-04 04:09 | 36.17488 | -114.57229 | 9578 ft | 296 kts | 229° |
| 2026-05-04 04:09 | 36.16192 | -114.59211 | 9200 ft | 295 kts | 229° |
| 2026-05-04 04:09 | 36.14901 | -114.61187 | 8862 ft | 293 kts | 229° |
| 2026-05-04 04:10 | 36.13633 | -114.63122 | 8704 ft | 284 kts | 229° |
| 2026-05-04 04:10 | 36.12406 | -114.64995 | 8597 ft | 275 kts | 229° |
| 2026-05-04 04:10 | 36.11214 | -114.66814 | 8440 ft | 267 kts | 229° |
| 2026-05-04 04:10 | 36.10079 | -114.68545 | 8296 ft | 257 kts | 229° |
| 2026-05-04 04:11 | 36.08987 | -114.70210 | 8150 ft | 241 kts | 229° |
| 2026-05-04 04:11 | 36.07985 | -114.71769 | 8071 ft | 223 kts | 234° |
| 2026-05-04 04:11 | 36.07496 | -114.73493 | 7977 ft | 207 kts | 261° |
| 2026-05-04 04:11 | 36.07435 | -114.75228 | 7762 ft | 196 kts | 263° |
| 2026-05-04 04:12 | 36.07405 | -114.76877 | 7470 ft | 188 kts | 264° |
| 2026-05-04 04:12 | 36.07386 | -114.78471 | 7198 ft | 185 kts | 264° |
| 2026-05-04 04:12 | 36.07372 | -114.80065 | 6990 ft | 185 kts | 265° |
| 2026-05-04 04:12 | 36.07365 | -114.81663 | 6795 ft | 185 kts | 265° |
| 2026-05-04 04:13 | 36.07361 | -114.83231 | 6601 ft | 184 kts | 265° |
| 2026-05-04 04:13 | 36.07359 | -114.84816 | 6370 ft | 184 kts | 265° |
| 2026-05-04 04:13 | 36.07357 | -114.86391 | 6082 ft | 182 kts | 266° |
| 2026-05-04 04:13 | 36.07358 | -114.87955 | 5832 ft | 181 kts | 266° |
| 2026-05-04 04:14 | 36.07359 | -114.89498 | 5602 ft | 181 kts | 266° |
| 2026-05-04 04:14 | 36.07361 | -114.91068 | 5368 ft | 182 kts | 266° |
| 2026-05-04 04:14 | 36.07363 | -114.92622 | 5069 ft | 181 kts | 266° |
| 2026-05-04 04:14 | 36.07362 | -114.94220 | 4381 ft | 193 kts | 266° |
| 2026-05-04 04:15 | 36.07364 | -114.95886 | 3974 ft | 187 kts | 266° |
| 2026-05-04 04:15 | 36.07366 | -114.97396 | 3735 ft | 165 kts | 266° |
| 2026-05-04 04:15 | 36.07369 | -114.98745 | 3438 ft | 150 kts | 266° |
| 2026-05-04 04:15 | 36.07369 | -114.99982 | 3172 ft | 139 kts | 266° |
| 2026-05-04 04:16 | 36.07368 | -115.01157 | 3008 ft | 138 kts | 265° |
| 2026-05-04 04:16 | 36.07366 | -115.02345 | 2814 ft | 138 kts | 268° |
| 2026-05-04 04:16 | 36.07366 | -115.03531 | 2746 ft | 137 kts | 268° |
| 2026-05-04 04:16 | 36.07366 | -115.04715 | 2724 ft | 138 kts | 268° |
| 2026-05-04 04:17 | 36.07366 | -115.05902 | 2694 ft | 138 kts | 268° |
| 2026-05-04 04:17 | 36.07366 | -115.07091 | 2665 ft | 138 kts | 268° |
| 2026-05-04 04:17 | 36.07367 | -115.08263 | 2634 ft | 138 kts | 268° |
| 2026-05-04 04:17 | 36.07368 | -115.09500 | 2510 ft | 145 kts | 268° |
| 2026-05-04 04:18 | 36.07367 | -115.10748 | 2327 ft | 147 kts | 269° |
| 2026-05-04 04:18 | 36.07371 | -115.12013 | 2146 ft | 147 kts | 269° |
| 2026-05-04 04:18 | 36.07368 | -115.13245 | 2073 ft | 134 kts | 269° |
| 2026-05-04 04:18 | 36.07366 | -115.14291 | 2090 ft | 108 kts | 269° |
| 2026-05-04 04:19 | 36.07404 | -115.14875 | 2099 ft | 35 kts | 291° |
| 2026-05-04 04:19 | 36.07458 | -115.15023 | 2101 ft | 10 kts | 298° |
| 2026-05-04 04:19 | 36.07473 | -115.15053 | 2101 ft | 3 kts | 304° |
| 2026-05-04 04:19 | 36.07488 | -115.15079 | 2102 ft | 4 kts | 308° |
| 2026-05-04 04:20 | 36.07506 | -115.15101 | 2103 ft | 4 kts | 317° |
| 2026-05-04 04:20 | 36.07546 | -115.15139 | 2106 ft | 12 kts | 325° |
| 2026-05-04 04:20 | 36.07656 | -115.15207 | 2113 ft | 24 kts | 336° |
| 2026-05-04 04:20 | 36.07863 | -115.15325 | 2102 ft | 39 kts | 335° |
| 2026-05-04 04:21 | 36.08062 | -115.15440 | 2100 ft | 28 kts | 333° |
| 2026-05-04 04:21 | 36.08244 | -115.15546 | 2101 ft | 27 kts | 334° |
| 2026-05-04 04:21 | 36.08344 | -115.15537 | 2101 ft | 17 kts | 60° |
| 2026-05-04 04:21 | 36.08381 | -115.15434 | 2100 ft | 3 kts | 65° |
| 2026-05-04 04:22 | 36.08399 | -115.15387 | 2100 ft | 9 kts | 65° |
| 2026-05-04 04:22 | 36.08392 | -115.15302 | 2099 ft | 8 kts | 121° |
| 2026-05-04 04:22 | 36.08352 | -115.15274 | 2099 ft | 5 kts | 174° |
| 2026-05-04 04:22 | 36.08331 | -115.15273 | 2099 ft | 2 kts | 179° |